createdAt,value
2023-04-17T00:02:22.391Z,9.51
2023-04-17T00:05:27.888Z,9.52
2023-04-17T00:08:30.988Z,9.47
2023-04-17T00:11:33.642Z,9.48
2023-04-17T00:14:36.269Z,9.47
2023-04-17T00:17:38.957Z,9.47
2023-04-17T00:20:43.032Z,9.45
2023-04-17T00:23:45.871Z,9.39
2023-04-17T00:26:48.484Z,9.37
2023-04-17T00:29:51.198Z,9.36
2023-04-17T00:32:53.955Z,9.35
2023-04-17T00:35:58.020Z,9.35
2023-04-17T00:39:01.199Z,9.33
2023-04-17T00:42:03.952Z,9.30
2023-04-17T00:45:10.822Z,9.29
2023-04-17T00:48:16.146Z,9.23
2023-04-17T00:51:20.194Z,9.17
2023-04-17T00:54:24.017Z,9.13
2023-04-17T00:57:27.716Z,9.13
2023-04-17T01:00:30.381Z,9.11
2023-04-17T01:03:34.102Z,9.14
2023-04-17T01:06:38.224Z,9.11
2023-04-17T01:09:41.026Z,9.04
2023-04-17T01:12:46.683Z,9.02
2023-04-17T01:15:49.563Z,9.04
2023-04-17T01:18:52.300Z,8.97
2023-04-17T01:21:56.340Z,8.94
2023-04-17T01:25:00.403Z,9.01
2023-04-17T01:28:03.062Z,8.97
2023-04-17T01:31:05.987Z,8.98
2023-04-17T01:34:08.677Z,9.02
2023-04-17T01:37:11.382Z,9.04
2023-04-17T01:40:15.535Z,9.03
2023-04-17T01:43:18.227Z,8.99
2023-04-17T01:46:20.928Z,9.01
2023-04-17T01:49:23.655Z,9.01
2023-04-17T01:52:26.451Z,8.94
2023-04-17T01:55:30.492Z,8.94
2023-04-17T01:58:33.234Z,8.90
2023-04-17T02:01:36.823Z,8.91
2023-04-17T02:04:39.665Z,8.93
2023-04-17T02:07:42.638Z,8.90
2023-04-17T02:10:46.682Z,8.90
2023-04-17T02:13:49.318Z,8.90
2023-04-17T02:16:53.700Z,8.86
2023-04-17T02:19:56.469Z,8.85
2023-04-17T02:23:00.359Z,8.81
2023-04-17T02:26:04.723Z,8.81
2023-04-17T02:29:07.345Z,8.76
2023-04-17T02:32:09.989Z,8.78
2023-04-17T02:35:12.904Z,8.76
2023-04-17T02:38:15.613Z,8.75
2023-04-17T02:41:19.591Z,8.72
2023-04-17T02:44:22.247Z,8.76
2023-04-17T02:47:24.879Z,8.73
2023-04-17T02:50:27.629Z,8.72
2023-04-17T02:53:30.294Z,8.71
2023-04-17T02:56:34.307Z,8.72
2023-04-17T02:59:36.988Z,8.71
2023-04-17T03:02:39.881Z,8.66
2023-04-17T03:05:42.907Z,8.63
2023-04-17T03:08:45.564Z,8.59
2023-04-17T03:11:49.840Z,8.59
2023-04-17T03:14:52.918Z,8.56
2023-04-17T03:17:55.657Z,8.55
2023-04-17T03:20:58.404Z,8.55
2023-04-17T03:24:01.490Z,8.55
2023-04-17T03:27:05.830Z,8.57
2023-04-17T03:30:11.009Z,8.49
2023-04-17T03:33:13.674Z,8.50
2023-04-17T03:36:17.921Z,8.52
2023-04-17T03:39:20.696Z,8.52
2023-04-17T03:42:25.668Z,8.51
2023-04-17T03:45:28.461Z,8.52
2023-04-17T03:48:31.500Z,8.57
2023-04-17T03:51:34.118Z,8.52
2023-04-17T03:54:36.759Z,8.50
2023-04-17T03:57:40.764Z,8.43
2023-04-17T04:00:45.447Z,8.40
2023-04-17T04:03:48.363Z,8.38
2023-04-17T04:06:52.743Z,8.41
2023-04-17T04:09:55.815Z,8.47
2023-04-17T04:12:59.856Z,8.39
2023-04-17T04:16:02.531Z,8.38
2023-04-17T04:19:05.368Z,8.36
2023-04-17T04:22:07.993Z,8.36
2023-04-17T04:25:12.257Z,8.34
2023-04-17T04:28:17.702Z,8.38
2023-04-17T04:31:20.614Z,8.40
2023-04-17T04:34:25.520Z,8.40
2023-04-17T04:37:30.021Z,8.43
2023-04-17T04:40:38.072Z,8.44
2023-04-17T04:43:42.234Z,8.49
2023-04-17T04:46:45.042Z,8.52
2023-04-17T04:49:48.169Z,8.52
2023-04-17T04:52:50.814Z,8.49
2023-04-17T04:55:53.478Z,8.46
2023-04-17T04:58:57.479Z,8.50
2023-04-17T05:02:00.243Z,8.51
2023-04-17T05:05:03.094Z,8.53
2023-04-17T05:08:06.236Z,8.58
2023-04-17T05:11:09.101Z,8.61
2023-04-17T05:14:13.123Z,8.66
2023-04-17T05:17:15.805Z,8.61
2023-04-17T05:20:18.742Z,8.67
2023-04-17T05:23:22.989Z,8.71
2023-04-17T05:26:26.239Z,8.74
2023-04-17T05:29:30.355Z,8.77
2023-04-17T05:32:34.864Z,8.83
2023-04-17T05:35:37.616Z,8.88
2023-04-17T05:38:40.373Z,8.90
2023-04-17T05:41:43.082Z,8.92
2023-04-17T05:44:47.106Z,9.04
2023-04-17T05:47:49.789Z,9.11
2023-04-17T05:50:52.584Z,9.21
2023-04-17T05:53:55.393Z,9.22
2023-04-17T05:56:58.095Z,9.26
2023-04-17T06:00:02.130Z,9.20
2023-04-17T06:03:05.972Z,9.28
2023-04-17T06:06:08.958Z,9.37
2023-04-17T06:09:11.954Z,9.50
2023-04-17T06:12:15.789Z,9.54
2023-04-17T06:15:19.823Z,9.57
2023-04-17T06:18:22.466Z,9.75
2023-04-17T06:21:25.731Z,9.88
2023-04-17T06:24:28.404Z,9.87
2023-04-17T06:27:31.050Z,9.82
2023-04-17T06:30:35.181Z,9.85
2023-04-17T06:33:37.856Z,10.17
2023-04-17T06:36:41.080Z,10.29
2023-04-17T06:39:43.724Z,10.17
2023-04-17T06:42:46.362Z,10.25
2023-04-17T06:45:50.449Z,10.19
2023-04-17T06:48:57.729Z,10.39
2023-04-17T06:52:00.663Z,10.61
2023-04-17T06:55:03.363Z,10.72
2023-04-17T06:58:07.679Z,10.53
2023-04-17T07:01:12.060Z,10.59
2023-04-17T07:04:15.065Z,10.63
2023-04-17T07:07:17.884Z,10.84
2023-04-17T07:10:20.992Z,11.07
2023-04-17T07:13:23.666Z,11.01
2023-04-17T07:16:27.747Z,11.12
2023-04-17T07:19:30.478Z,11.18
2023-04-17T07:22:34.208Z,11.42
2023-04-17T07:25:37.702Z,11.41
2023-04-17T07:28:40.412Z,11.28
2023-04-17T07:31:44.453Z,11.26
2023-04-17T07:34:47.497Z,11.70
2023-04-17T07:37:50.595Z,11.72
2023-04-17T07:40:53.228Z,11.29
2023-04-17T07:43:58.455Z,11.59
2023-04-17T07:47:03.100Z,11.72
2023-04-17T07:50:06.648Z,11.90
2023-04-17T07:53:09.296Z,12.18
2023-04-17T07:56:13.058Z,12.61
2023-04-17T07:59:16.337Z,12.75
2023-04-17T08:02:22.133Z,12.70
2023-04-17T08:05:26.292Z,12.99
2023-04-17T08:08:29.078Z,13.13
2023-04-17T08:11:35.697Z,13.39
2023-04-17T08:14:43.674Z,13.42
2023-04-17T08:17:47.780Z,13.51
2023-04-17T08:20:50.522Z,13.64
2023-04-17T08:23:53.214Z,13.70
2023-04-17T08:26:56.389Z,13.91
2023-04-17T08:29:59.040Z,13.19
2023-04-17T08:33:03.224Z,13.38
2023-04-17T08:36:09.598Z,13.76
2023-04-17T08:39:14.560Z,13.53
2023-04-17T08:42:18.943Z,13.67
2023-04-17T08:45:24.152Z,14.01
2023-04-17T08:48:28.356Z,14.47
2023-04-17T08:51:31.473Z,14.29
2023-04-17T08:54:35.175Z,14.79
2023-04-17T08:57:54.453Z,14.90
2023-04-17T09:01:08.743Z,15.00
2023-04-17T09:04:35.528Z,15.09
2023-04-17T09:07:40.644Z,15.03
2023-04-17T09:10:44.885Z,15.14
2023-04-17T09:13:47.601Z,15.34
2023-04-17T09:16:54.960Z,15.76
2023-04-17T09:20:08.964Z,16.22
2023-04-17T09:23:11.768Z,16.11
2023-04-17T09:26:15.847Z,16.51
2023-04-17T09:29:18.613Z,16.78
2023-04-17T09:32:21.263Z,16.94
2023-04-17T09:35:28.197Z,17.26
2023-04-17T09:38:38.697Z,17.27
2023-04-17T09:41:41.648Z,17.22
2023-04-17T09:44:44.996Z,17.08
2023-04-17T09:47:48.801Z,17.61
2023-04-17T09:50:53.273Z,18.03
2023-04-17T09:53:58.850Z,18.45
2023-04-17T09:57:02.621Z,18.39
2023-04-17T10:00:10.621Z,18.10
2023-04-17T10:03:17.372Z,18.03
2023-04-17T10:06:21.803Z,18.50
2023-04-17T10:09:24.855Z,18.81
2023-04-17T10:12:27.690Z,18.58
2023-04-17T10:15:31.483Z,18.90
2023-04-17T10:18:34.201Z,19.02
2023-04-17T10:21:40.947Z,19.09
2023-04-17T10:24:43.691Z,19.21
2023-04-17T10:27:48.743Z,19.76
2023-04-17T10:30:53.952Z,19.86
2023-04-17T10:33:56.695Z,20.53
2023-04-17T10:37:01.401Z,19.64
2023-04-17T10:40:05.680Z,18.88
2023-04-17T10:43:13.062Z,18.56
2023-04-17T10:46:16.057Z,18.97
2023-04-17T10:49:18.893Z,19.26
2023-04-17T10:52:44.663Z,19.50
2023-04-17T10:55:50.344Z,19.17
2023-04-17T10:58:58.552Z,19.03
2023-04-17T11:02:07.593Z,19.74
2023-04-17T11:05:11.867Z,20.63
2023-04-17T11:08:16.515Z,20.89
2023-04-17T11:11:26.962Z,19.97
2023-04-17T11:14:42.991Z,20.21
2023-04-17T11:17:48.934Z,20.33
2023-04-17T11:20:53.445Z,20.45
2023-04-17T11:23:57.472Z,21.18
2023-04-17T11:27:01.988Z,21.39
2023-04-17T11:30:05.452Z,21.45
2023-04-17T11:33:09.483Z,21.20
2023-04-17T11:36:12.260Z,21.23
2023-04-17T11:39:17.128Z,21.67
2023-04-17T11:42:27.630Z,20.66
2023-04-17T11:45:32.392Z,20.79
2023-04-17T11:48:35.966Z,20.31
2023-04-17T11:51:38.636Z,20.34
2023-04-17T11:54:42.658Z,20.57
2023-04-17T11:57:45.613Z,20.53
2023-04-17T12:01:06.150Z,19.79
2023-04-17T12:04:21.705Z,19.85
2023-04-17T12:07:25.564Z,19.47
2023-04-17T12:10:38.883Z,19.68
2023-04-17T12:13:41.534Z,19.15
2023-04-17T12:16:44.197Z,19.82
2023-04-17T12:19:46.873Z,19.39
2023-04-17T12:22:49.599Z,20.26
2023-04-17T12:25:53.663Z,20.07
2023-04-17T12:28:57.681Z,19.59
2023-04-17T12:32:00.429Z,19.48
2023-04-17T12:35:03.122Z,20.15
2023-04-17T12:38:05.848Z,19.91
2023-04-17T12:41:09.904Z,19.06
2023-04-17T12:44:12.811Z,19.21
2023-04-17T12:47:16.521Z,20.10
2023-04-17T12:50:19.413Z,19.67
2023-04-17T12:53:22.046Z,19.69
2023-04-17T12:56:26.071Z,19.84
2023-04-17T12:59:28.752Z,18.83
2023-04-17T13:02:31.518Z,20.40
2023-04-17T13:05:34.483Z,19.10
2023-04-17T13:08:37.132Z,18.51
2023-04-17T13:11:41.223Z,18.25
2023-04-17T13:14:43.886Z,18.69
2023-04-17T13:17:46.630Z,18.02
2023-04-17T13:20:49.285Z,18.58
2023-04-17T13:23:51.944Z,18.24
2023-04-17T13:26:57.564Z,18.64
2023-04-17T13:30:00.233Z,19.01
2023-04-17T13:33:03.044Z,19.09
2023-04-17T13:36:05.876Z,18.99
2023-04-17T13:39:09.454Z,18.51
2023-04-17T13:42:17.392Z,19.50
2023-04-17T13:45:20.098Z,19.38
2023-04-17T13:48:22.769Z,19.13
2023-04-17T13:51:27.193Z,18.13
2023-04-17T13:54:29.907Z,18.46
2023-04-17T13:57:33.986Z,17.95
2023-04-17T14:00:36.639Z,17.93
2023-04-17T14:03:40.718Z,18.03
2023-04-17T14:06:46.989Z,17.37
2023-04-17T14:09:49.830Z,17.81
2023-04-17T14:12:53.824Z,17.88
2023-04-17T14:15:56.844Z,17.25
2023-04-17T14:19:06.428Z,16.86
2023-04-17T14:22:16.266Z,17.14
2023-04-17T14:25:18.883Z,16.74
2023-04-17T14:28:23.687Z,16.71
2023-04-17T14:31:26.373Z,16.12
2023-04-17T14:34:29.480Z,16.24
2023-04-17T14:37:32.137Z,16.13
2023-04-17T14:40:34.841Z,16.34
2023-04-17T14:43:38.825Z,16.19
2023-04-17T14:46:41.506Z,16.01
2023-04-17T14:49:44.178Z,16.12
2023-04-17T14:52:46.825Z,15.91
2023-04-17T14:55:49.737Z,15.61
2023-04-17T14:58:53.764Z,15.47
2023-04-17T15:01:56.475Z,15.52
2023-04-17T15:04:59.285Z,15.03
2023-04-17T15:08:01.937Z,15.34
2023-04-17T15:11:04.574Z,15.29
2023-04-17T15:14:08.620Z,14.79
2023-04-17T15:17:11.255Z,14.71
2023-04-17T15:20:13.978Z,14.65
2023-04-17T15:23:17.562Z,14.76
2023-04-17T15:26:20.220Z,14.54
2023-04-17T15:29:24.243Z,14.58
2023-04-17T15:32:26.976Z,14.51
2023-04-17T15:35:29.665Z,14.25
2023-04-17T15:38:32.298Z,14.33
2023-04-17T15:41:34.969Z,14.32
2023-04-17T15:44:39.124Z,14.15
2023-04-17T15:47:41.789Z,13.91
2023-04-17T15:50:44.887Z,13.64
2023-04-17T15:53:47.781Z,13.56
2023-04-17T15:56:50.488Z,13.36
2023-04-17T15:59:54.471Z,13.28
2023-04-17T16:02:57.238Z,13.12
2023-04-17T16:06:00.000Z,13.02
2023-04-17T16:09:03.405Z,13.08
2023-04-17T16:12:08.631Z,13.28
2023-04-17T16:15:14.360Z,13.44
2023-04-17T16:18:17.029Z,13.27
2023-04-17T16:21:19.655Z,13.17
2023-04-17T16:24:22.273Z,13.34
2023-04-17T16:27:25.066Z,13.51
2023-04-17T16:30:29.047Z,13.15
2023-04-17T16:33:31.786Z,13.14
2023-04-17T16:36:34.385Z,13.34
2023-04-17T16:39:37.069Z,13.22
2023-04-17T16:42:39.995Z,13.35
2023-04-17T16:45:44.045Z,12.92
2023-04-17T16:48:46.775Z,12.77
2023-04-17T16:51:49.590Z,13.07
2023-04-17T16:54:52.235Z,12.86
2023-04-17T16:57:55.585Z,12.89
2023-04-17T17:00:59.639Z,12.80
2023-04-17T17:04:02.427Z,12.42
2023-04-17T17:07:06.015Z,12.36
2023-04-17T17:10:09.818Z,12.24
2023-04-17T17:13:13.409Z,12.20
2023-04-17T17:16:18.453Z,11.90
2023-04-17T17:19:21.728Z,12.19
2023-04-17T17:22:24.517Z,12.39
2023-04-17T17:25:27.433Z,12.17
2023-04-17T17:28:30.447Z,11.86
2023-04-17T17:31:35.219Z,11.97
2023-04-17T17:34:37.931Z,11.50
2023-04-17T17:37:42.168Z,11.68
2023-04-17T17:40:44.806Z,11.79
2023-04-17T17:43:47.457Z,11.78
2023-04-17T17:46:51.456Z,11.98
2023-04-17T17:49:54.084Z,11.71
2023-04-17T17:52:58.681Z,11.38
2023-04-17T17:56:01.680Z,11.10
2023-04-17T17:59:04.393Z,11.04
2023-04-17T18:02:08.462Z,10.98
2023-04-17T18:05:11.353Z,10.80
2023-04-17T18:08:14.124Z,10.92
2023-04-17T18:11:16.830Z,10.87
2023-04-17T18:14:19.474Z,10.60
2023-04-17T18:17:23.524Z,10.63
2023-04-17T18:20:26.180Z,10.45
2023-04-17T18:23:28.824Z,10.64
2023-04-17T18:26:32.296Z,10.84
2023-04-17T18:29:34.936Z,10.64
2023-04-17T18:32:39.037Z,10.74
2023-04-17T18:35:41.686Z,10.56
2023-04-17T18:38:44.376Z,10.51
2023-04-17T18:41:47.187Z,10.29
2023-04-17T18:44:49.860Z,10.63
2023-04-17T18:47:53.949Z,10.35
2023-04-17T18:50:56.657Z,10.43
2023-04-17T18:53:59.273Z,10.57
2023-04-17T18:57:01.996Z,10.45
2023-04-17T19:00:06.128Z,9.94
2023-04-17T19:03:10.358Z,10.18
2023-04-17T19:06:13.271Z,10.03
2023-04-17T19:09:15.922Z,10.23
2023-04-17T19:12:18.554Z,10.16
2023-04-17T19:15:21.387Z,10.14
2023-04-17T19:18:25.384Z,10.30
2023-04-17T19:21:28.202Z,10.17
2023-04-17T19:24:31.903Z,10.11
2023-04-17T19:27:34.526Z,9.75
2023-04-17T19:30:37.275Z,9.95
2023-04-17T19:33:41.311Z,10.10
2023-04-17T19:36:44.493Z,10.06
2023-04-17T19:39:47.160Z,9.76
2023-04-17T19:42:49.813Z,9.81
2023-04-17T19:45:52.477Z,10.24
2023-04-17T19:48:56.585Z,10.37
2023-04-17T19:52:00.827Z,10.23
2023-04-17T19:55:04.465Z,10.26
2023-04-17T19:58:07.114Z,9.97
2023-04-17T20:01:09.900Z,9.84
2023-04-17T20:04:14.095Z,9.95
2023-04-17T20:07:16.835Z,10.09
2023-04-17T20:10:19.525Z,10.12
2023-04-17T20:13:22.334Z,9.95
2023-04-17T20:16:24.997Z,9.69
2023-04-17T20:19:29.737Z,9.91
2023-04-17T20:22:32.334Z,10.02
2023-04-17T20:25:35.036Z,9.92
2023-04-17T20:28:37.706Z,10.02
2023-04-17T20:31:40.437Z,10.00
2023-04-17T20:34:44.475Z,9.80
2023-04-17T20:37:47.183Z,9.96
2023-04-17T20:40:49.819Z,10.00
2023-04-17T20:43:58.864Z,9.80
2023-04-17T20:47:01.549Z,10.07
2023-04-17T20:50:06.578Z,10.10
2023-04-17T20:53:09.237Z,10.02
2023-04-17T20:56:11.954Z,10.14
2023-04-17T20:59:14.674Z,9.53
2023-04-17T21:02:17.449Z,9.73
2023-04-17T21:05:21.620Z,9.96
2023-04-17T21:08:25.112Z,10.10
2023-04-17T21:11:27.729Z,9.89
2023-04-17T21:14:30.441Z,9.94
2023-04-17T21:17:33.110Z,10.01
2023-04-17T21:20:37.102Z,9.72
2023-04-17T21:23:39.828Z,9.78
2023-04-17T21:26:42.433Z,9.82
2023-04-17T21:29:45.148Z,9.83
2023-04-17T21:32:48.551Z,9.81
2023-04-17T21:35:52.657Z,9.84
2023-04-17T21:38:55.365Z,9.82
2023-04-17T21:41:58.354Z,9.82
2023-04-17T21:45:00.992Z,9.74
2023-04-17T21:48:04.040Z,9.71
2023-04-17T21:51:08.370Z,9.67
2023-04-17T21:54:11.218Z,9.63
2023-04-17T21:57:14.074Z,9.63
2023-04-17T22:00:17.571Z,9.64
2023-04-17T22:03:21.826Z,9.54
2023-04-17T22:06:26.369Z,9.45
2023-04-17T22:09:29.258Z,9.52
2023-04-17T22:12:31.916Z,9.44
2023-04-17T22:15:34.572Z,9.40
2023-04-17T22:18:37.210Z,9.38
2023-04-17T22:21:41.228Z,9.02
2023-04-17T22:24:43.945Z,9.03
2023-04-17T22:27:46.557Z,9.05
2023-04-17T22:30:51.781Z,9.12
2023-04-17T22:33:54.562Z,9.11
2023-04-17T22:36:58.770Z,9.13
2023-04-17T22:40:01.478Z,9.04
2023-04-17T22:43:04.192Z,8.96
2023-04-17T22:46:06.937Z,8.99
2023-04-17T22:49:09.611Z,8.91
2023-04-17T22:52:13.623Z,8.87
2023-04-17T22:55:16.422Z,8.65
2023-04-17T22:58:19.110Z,8.79
2023-04-17T23:01:21.794Z,8.60
2023-04-17T23:04:24.847Z,8.72
2023-04-17T23:07:29.123Z,8.72
2023-04-17T23:10:31.799Z,8.67
2023-04-17T23:13:34.560Z,8.51
2023-04-17T23:16:37.469Z,8.35
2023-04-17T23:19:40.160Z,8.36
2023-04-17T23:22:44.218Z,8.53
2023-04-17T23:25:47.003Z,8.53
2023-04-17T23:28:49.657Z,8.47
2023-04-17T23:31:52.336Z,8.49
2023-04-17T23:34:55.026Z,8.35
2023-04-17T23:37:59.018Z,8.15
2023-04-17T23:41:01.676Z,8.41
2023-04-17T23:44:04.757Z,8.35
2023-04-17T23:47:07.439Z,8.31
2023-04-17T23:50:11.127Z,8.02
2023-04-17T23:53:15.253Z,8.30
2023-04-17T23:56:18.016Z,8.41
2023-04-17T23:59:20.667Z,8.28
